Time;durP1;ratioP1;P1;durP2;ratioP2;P2;SDS_P1;SDS_P2;PMS_P1;PMS_P2;Temp;Humidity;BMP_temperature;BMP_pressure;BME280_temperature;BME280_humidity;BME280_pressure;Samples;Min_cycle;Max_cycle;Signal;HPM_P1;HPM_P2
2022/11/11 00:00:25;;;;;;;;;;;20.30;47.50;;;;;;4992366;28;19929;-64
2022/11/11 00:02:54;;;;;;;;;;;20.30;47.50;;;;;;4960023;28;19932;-62
2022/11/11 00:05:21;;;;;;;;;;;20.30;47.50;;;;;;4991231;28;19929;-63
2022/11/11 00:07:48;;;;;;;;;;;20.30;47.50;;;;;;4974821;28;19980;-63
2022/11/11 00:10:15;;;;;;;;;;;20.30;47.50;;;;;;4987801;28;19926;-63
2022/11/11 00:12:41;;;;;;;;;;;20.20;47.40;;;;;;4967019;28;19929;-63
2022/11/11 00:15:09;;;;;;;;;;;20.30;47.50;;;;;;4975019;28;20376;-63
2022/11/11 00:25:51;;;;;;;;;;;20.30;47.40;;;;;;4973168;28;19934;-63
2022/11/11 00:28:18;;;;;;;;;;;20.20;47.30;;;;;;4991463;28;19929;-62
2022/11/11 00:30:45;;;;;;;;;;;20.30;47.40;;;;;;4989516;28;19926;-63
2022/11/11 00:33:11;;;;;;;;;;;20.20;47.30;;;;;;4990895;28;20411;-62
2022/11/11 00:35:56;;;;;;;;;;;20.20;47.30;;;;;;4998523;28;19929;-63
2022/11/11 00:41:22;;;;;;;;;;;20.20;47.30;;;;;;4922329;29;20308;-62
2022/11/11 00:43:49;;;;;;;;;;;20.20;47.30;;;;;;4919843;29;19933;-62
2022/11/11 00:51:46;;;;;;;;;;;20.20;47.30;;;;;;4905606;29;20400;-63
2022/11/11 00:54:12;;;;;;;;;;;20.20;47.30;;;;;;4935870;29;19934;-63
2022/11/11 00:56:39;;;;;;;;;;;20.20;47.40;;;;;;4914917;29;19935;-62
2022/11/11 00:59:06;;;;;;;;;;;20.20;47.30;;;;;;4935503;29;19964;-62
2022/11/11 01:01:33;;;;;;;;;;;20.20;47.30;;;;;;4944425;29;19934;-63
2022/11/11 01:04:00;;;;;;;;;;;20.20;47.30;;;;;;4922586;29;19938;-63
2022/11/11 01:06:27;;;;;;;;;;;20.20;47.30;;;;;;4922046;29;19926;-62
2022/11/11 01:08:55;;;;;;;;;;;20.20;47.30;;;;;;4925547;29;19927;-63
2022/11/11 01:11:22;;;;;;;;;;;20.20;47.30;;;;;;4928417;28;19935;-62
2022/11/11 01:13:49;;;;;;;;;;;20.20;47.30;;;;;;4991843;28;19933;-63
2022/11/11 01:16:16;;;;;;;;;;;20.20;47.30;;;;;;4976794;28;19937;-63
2022/11/11 01:18:43;;;;;;;;;;;20.20;47.30;;;;;;4975535;28;19929;-61
2022/11/11 01:21:11;;;;;;;;;;;20.20;47.30;;;;;;4993301;28;19941;-63
2022/11/11 01:23:38;;;;;;;;;;;20.20;47.20;;;;;;4976114;28;19933;-62
2022/11/11 01:26:07;;;;;;;;;;;20.20;47.30;;;;;;4973069;28;19933;-61
2022/11/11 01:28:34;;;;;;;;;;;20.20;47.30;;;;;;4976255;28;19929;-62
2022/11/11 01:31:01;;;;;;;;;;;20.20;47.30;;;;;;4968808;28;19929;-63
2022/11/11 01:33:28;;;;;;;;;;;20.20;47.30;;;;;;4975756;28;20008;-61
2022/11/11 01:35:55;;;;;;;;;;;20.20;47.30;;;;;;4992721;28;19926;-62
2022/11/11 01:38:21;;;;;;;;;;;20.20;47.20;;;;;;4989480;28;19926;-62
2022/11/11 01:40:48;;;;;;;;;;;20.20;47.30;;;;;;4987823;28;19930;-62
2022/11/11 01:43:17;;;;;;;;;;;20.20;47.30;;;;;;4993140;28;20376;-62
2022/11/11 01:45:48;;;;;;;;;;;20.20;47.30;;;;;;4994849;28;19932;-62
2022/11/11 01:51:02;;;;;;;;;;;20.20;47.30;;;;;;4992291;28;19937;-62
2022/11/11 01:53:28;;;;;;;;;;;20.20;47.20;;;;;;4972917;28;19926;-62
2022/11/11 01:55:55;;;;;;;;;;;20.20;47.20;;;;;;4991179;28;20400;-62
2022/11/11 01:58:23;;;;;;;;;;;20.20;47.30;;;;;;4976592;28;19930;-63
2022/11/11 02:00:50;;;;;;;;;;;20.20;47.30;;;;;;4975532;28;20020;-63
2022/11/11 02:03:17;;;;;;;;;;;20.20;47.30;;;;;;4991989;28;19926;-63
2022/11/11 02:05:44;;;;;;;;;;;20.20;47.20;;;;;;4976202;28;19926;-63
2022/11/11 02:08:11;;;;;;;;;;;20.20;47.20;;;;;;4976086;28;19929;-62
2022/11/11 02:10:39;;;;;;;;;;;20.10;47.10;;;;;;4975889;28;19937;-62
2022/11/11 02:15:52;;;;;;;;;;;20.10;47.20;;;;;;4969231;28;20006;-62
2022/11/11 02:18:18;;;;;;;;;;;20.10;47.20;;;;;;4992630;28;19932;-63
2022/11/11 02:20:45;;;;;;;;;;;20.10;47.10;;;;;;4971235;28;19941;-62
2022/11/11 02:23:13;;;;;;;;;;;20.20;47.20;;;;;;4974789;28;20021;-62
2022/11/11 02:25:42;;;;;;;;;;;20.20;47.20;;;;;;4990472;28;19929;-62
2022/11/11 02:28:09;;;;;;;;;;;20.10;47.20;;;;;;4974909;28;19932;-62
2022/11/11 02:30:36;;;;;;;;;;;20.20;47.20;;;;;;4993573;28;19926;-62
2022/11/11 02:33:02;;;;;;;;;;;20.10;47.10;;;;;;4990907;28;19930;-63
2022/11/11 02:35:30;;;;;;;;;;;20.20;47.20;;;;;;4970403;28;19925;-63
2022/11/11 02:37:57;;;;;;;;;;;20.20;47.20;;;;;;4975129;28;19925;-62
2022/11/11 02:40:26;;;;;;;;;;;20.20;47.20;;;;;;4986232;28;19933;-63
2022/11/11 02:42:54;;;;;;;;;;;20.20;47.20;;;;;;4991079;28;19933;-63
2022/11/11 02:45:21;;;;;;;;;;;20.20;47.20;;;;;;4985797;28;19988;-63
2022/11/11 02:47:47;;;;;;;;;;;20.10;47.10;;;;;;4990457;28;19993;-62
2022/11/11 02:50:14;;;;;;;;;;;20.10;47.10;;;;;;4990781;28;19937;-63
2022/11/11 02:52:41;;;;;;;;;;;20.10;47.10;;;;;;4986717;28;19946;-63
2022/11/11 02:55:08;;;;;;;;;;;20.10;47.10;;;;;;4989226;28;19933;-63
2022/11/11 02:57:35;;;;;;;;;;;20.10;47.00;;;;;;4991217;28;20403;-63
2022/11/11 03:00:05;;;;;;;;;;;20.10;47.10;;;;;;4963525;28;20022;-63
2022/11/11 03:02:32;;;;;;;;;;;20.10;47.10;;;;;;4990775;28;19925;-63
2022/11/11 03:04:59;;;;;;;;;;;20.10;47.10;;;;;;4989145;28;19932;-63
2022/11/11 03:07:26;;;;;;;;;;;20.10;47.10;;;;;;4986918;28;19948;-63
2022/11/11 03:09:52;;;;;;;;;;;20.10;47.10;;;;;;4989671;28;19973;-63
2022/11/11 03:12:21;;;;;;;;;;;20.10;47.10;;;;;;4971928;28;20414;-62
2022/11/11 03:14:48;;;;;;;;;;;20.10;47.00;;;;;;4988746;28;19940;-63
2022/11/11 03:22:41;;;;;;;;;;;20.10;47.10;;;;;;4972515;28;19930;-62
2022/11/11 03:27:52;;;;;;;;;;;20.10;47.00;;;;;;4989549;28;20557;-63
2022/11/11 03:30:19;;;;;;;;;;;20.10;47.00;;;;;;4975529;28;19936;-62
2022/11/11 03:32:47;;;;;;;;;;;20.10;47.10;;;;;;4967839;28;19933;-63
2022/11/11 03:35:14;;;;;;;;;;;20.10;47.00;;;;;;4972788;28;19922;-63
2022/11/11 03:40:25;;;;;;;;;;;20.10;47.00;;;;;;4967547;28;19980;-62
2022/11/11 03:42:52;;;;;;;;;;;20.10;47.00;;;;;;4970543;28;19925;-62
2022/11/11 03:45:18;;;;;;;;;;;20.10;47.00;;;;;;4987840;28;19925;-63
2022/11/11 03:47:49;;;;;;;;;;;20.10;47.00;;;;;;4974048;28;19941;-62
2022/11/11 03:50:16;;;;;;;;;;;20.10;47.00;;;;;;4970977;28;19933;-64
2022/11/11 03:52:43;;;;;;;;;;;20.10;47.00;;;;;;4990385;28;20432;-63
2022/11/11 03:55:10;;;;;;;;;;;20.10;47.00;;;;;;4987716;28;19973;-63
2022/11/11 03:57:40;;;;;;;;;;;20.10;46.90;;;;;;4988496;28;19926;-63
2022/11/11 04:00:07;;;;;;;;;;;20.10;46.90;;;;;;4986742;28;19961;-63
2022/11/11 04:10:48;;;;;;;;;;;20.10;46.90;;;;;;4965742;28;20435;-62
2022/11/11 04:16:08;;;;;;;;;;;20.10;46.90;;;;;;4974404;28;19926;-62
2022/11/11 04:25:47;;;;;;;;;;;20.10;46.80;;;;;;4969080;28;19934;-63
2022/11/11 04:26:52;;;;;;;;;;;20.00;46.80;;;;;;4980524;28;19937;-63
2022/11/11 04:29:28;;;;;;;;;;;20.10;46.80;;;;;;4959837;28;19933;-63
2022/11/11 04:34:40;;;;;;;;;;;20.10;46.80;;;;;;4974264;28;19945;-63
2022/11/11 04:37:08;;;;;;;;;;;20.10;46.80;;;;;;4990384;28;19933;-63
2022/11/11 04:42:19;;;;;;;;;;;20.10;46.80;;;;;;4978277;28;20392;-62
2022/11/11 04:47:30;;;;;;;;;;;20.10;46.80;;;;;;4976986;28;19973;-63
2022/11/11 04:49:56;;;;;;;;;;;20.10;46.80;;;;;;4978091;28;19921;-63
2022/11/11 04:52:28;;;;;;;;;;;20.10;46.80;;;;;;4993860;28;19929;-63
2022/11/11 04:57:40;;;;;;;;;;;20.10;46.80;;;;;;4959069;28;19933;-63
2022/11/11 05:00:08;;;;;;;;;;;20.00;46.70;;;;;;5001477;28;19930;-62
2022/11/11 05:05:19;;;;;;;;;;;20.10;46.70;;;;;;4977667;28;19933;-62
2022/11/11 05:10:30;;;;;;;;;;;20.00;46.70;;;;;;4943451;28;19933;-61
2022/11/11 05:21:19;;;;;;;;;;;20.00;46.70;;;;;;5012506;28;19933;-62
2022/11/11 05:21:21;;;;;;;;;;;20.00;46.60;;;;;;5001258;28;19936;-62
2022/11/11 05:26:34;;;;;;;;;;;20.00;46.70;;;;;;4991241;28;19925;-62
2022/11/11 05:29:01;;;;;;;;;;;20.00;46.60;;;;;;5013990;28;19930;-62
2022/11/11 05:31:28;;;;;;;;;;;20.00;46.60;;;;;;4999480;28;19925;-62
2022/11/11 05:33:54;;;;;;;;;;;20.00;46.60;;;;;;4985782;28;19934;-62
2022/11/11 05:36:21;;;;;;;;;;;20.00;46.60;;;;;;4993015;28;19929;-62
2022/11/11 05:38:50;;;;;;;;;;;20.00;46.60;;;;;;4970720;28;20416;-62
2022/11/11 05:41:16;;;;;;;;;;;20.00;46.60;;;;;;4977640;28;19925;-62
2022/11/11 05:43:43;;;;;;;;;;;20.00;46.60;;;;;;4976694;28;19934;-62
2022/11/11 05:46:10;;;;;;;;;;;20.00;46.60;;;;;;4981889;28;19926;-62
2022/11/11 05:49:13;;;;;;;;;;;20.00;46.60;;;;;;5001068;28;19933;-62
2022/11/11 05:51:27;;;;;;;;;;;20.00;46.60;;;;;;4970881;28;19926;-62
2022/11/11 05:53:57;;;;;;;;;;;20.00;46.60;;;;;;4995926;28;19963;-62
2022/11/11 05:56:23;;;;;;;;;;;20.00;46.60;;;;;;4958019;28;19934;-63
2022/11/11 05:58:50;;;;;;;;;;;20.00;46.60;;;;;;4957297;28;20578;-63
2022/11/11 06:01:17;;;;;;;;;;;20.00;46.50;;;;;;4966649;28;19978;-63
2022/11/11 06:03:44;;;;;;;;;;;20.00;46.60;;;;;;4984956;28;19926;-63
2022/11/11 06:06:11;;;;;;;;;;;20.00;46.50;;;;;;4981390;28;20287;-63
2022/11/11 06:08:38;;;;;;;;;;;20.00;46.50;;;;;;4985245;28;19926;-63
2022/11/11 06:11:06;;;;;;;;;;;20.00;46.50;;;;;;4992250;28;20499;-63
2022/11/11 06:13:33;;;;;;;;;;;20.00;46.50;;;;;;4975275;28;19936;-63
2022/11/11 06:15:59;;;;;;;;;;;20.00;46.50;;;;;;4993498;28;19932;-63
2022/11/11 06:18:26;;;;;;;;;;;20.00;46.50;;;;;;4966857;28;19926;-63
2022/11/11 06:20:53;;;;;;;;;;;20.00;46.50;;;;;;4969117;28;19938;-63
2022/11/11 06:23:20;;;;;;;;;;;20.00;46.50;;;;;;4979210;28;20308;-63
2022/11/11 06:28:32;;;;;;;;;;;20.00;46.50;;;;;;4972189;28;19992;-63
2022/11/11 06:30:59;;;;;;;;;;;20.00;46.50;;;;;;4992444;28;19933;-63
2022/11/11 06:33:26;;;;;;;;;;;20.00;46.50;;;;;;4986005;28;19926;-63
2022/11/11 06:35:53;;;;;;;;;;;20.00;46.50;;;;;;4982609;28;19933;-63
2022/11/11 06:38:19;;;;;;;;;;;20.00;46.50;;;;;;4975976;28;19937;-62
2022/11/11 06:40:46;;;;;;;;;;;20.00;46.50;;;;;;4980485;28;20360;-62
2022/11/11 06:43:13;;;;;;;;;;;20.00;46.50;;;;;;4971275;28;20328;-62
2022/11/11 06:45:41;;;;;;;;;;;20.00;46.50;;;;;;4966429;28;19936;-63
2022/11/11 06:48:08;;;;;;;;;;;20.00;46.50;;;;;;4967145;28;19930;-63
2022/11/11 06:50:35;;;;;;;;;;;20.00;46.50;;;;;;4961505;28;19937;-63
2022/11/11 06:53:04;;;;;;;;;;;20.00;46.50;;;;;;4967599;28;19980;-62
2022/11/11 06:55:30;;;;;;;;;;;20.00;46.50;;;;;;4993687;28;19925;-62
2022/11/11 06:58:04;;;;;;;;;;;20.00;46.50;;;;;;4980771;28;19932;-62
2022/11/11 07:00:31;;;;;;;;;;;20.00;46.50;;;;;;4971257;28;19926;-62
2022/11/11 07:02:59;;;;;;;;;;;20.00;46.50;;;;;;4968369;28;20305;-62
2022/11/11 07:05:26;;;;;;;;;;;19.90;46.40;;;;;;4972216;28;19927;-63
2022/11/11 07:07:52;;;;;;;;;;;20.00;46.50;;;;;;4985027;28;19972;-62
2022/11/11 07:10:19;;;;;;;;;;;20.00;46.50;;;;;;4971005;28;19948;-62
2022/11/11 07:12:46;;;;;;;;;;;20.00;46.50;;;;;;4991115;28;19926;-62
2022/11/11 07:15:13;;;;;;;;;;;20.00;46.50;;;;;;4973677;28;19979;-62
2022/11/11 07:17:40;;;;;;;;;;;20.00;46.60;;;;;;4974286;28;19926;-62
2022/11/11 07:20:09;;;;;;;;;;;20.00;46.50;;;;;;4990474;28;19940;-63
2022/11/11 07:22:36;;;;;;;;;;;20.00;46.50;;;;;;4997519;28;19926;-62
2022/11/11 07:25:02;;;;;;;;;;;20.00;46.50;;;;;;4975875;28;19930;-63
2022/11/11 07:27:29;;;;;;;;;;;19.90;46.40;;;;;;4973307;28;19929;-63
2022/11/11 07:29:56;;;;;;;;;;;20.00;46.60;;;;;;4990926;28;19933;-63
2022/11/11 07:32:23;;;;;;;;;;;19.90;46.50;;;;;;4973284;28;20150;-63
2022/11/11 07:34:50;;;;;;;;;;;19.90;46.50;;;;;;4972626;28;19926;-63
2022/11/11 07:37:18;;;;;;;;;;;20.00;46.60;;;;;;4988006;28;19926;-63
2022/11/11 07:39:45;;;;;;;;;;;19.90;46.50;;;;;;4988806;28;19925;-62
2022/11/11 07:42:12;;;;;;;;;;;20.00;46.60;;;;;;4976068;28;19926;-62
2022/11/11 07:44:39;;;;;;;;;;;20.00;46.60;;;;;;4971631;28;19933;-63
2022/11/11 07:47:05;;;;;;;;;;;20.00;46.50;;;;;;4981180;28;19933;-63
2022/11/11 07:49:32;;;;;;;;;;;20.00;46.60;;;;;;4974479;28;19976;-63
2022/11/11 07:51:59;;;;;;;;;;;19.90;46.50;;;;;;4981963;28;19926;-62
2022/11/11 07:54:27;;;;;;;;;;;20.00;46.60;;;;;;4973170;28;20028;-63
2022/11/11 07:56:54;;;;;;;;;;;20.00;46.60;;;;;;5004655;28;19929;-63
2022/11/11 07:59:20;;;;;;;;;;;20.00;46.60;;;;;;4988786;28;19925;-63
2022/11/11 08:01:47;;;;;;;;;;;20.00;46.60;;;;;;4972532;28;20146;-63
2022/11/11 08:04:14;;;;;;;;;;;20.00;46.60;;;;;;4973435;28;19925;-63
2022/11/11 08:06:41;;;;;;;;;;;19.90;46.60;;;;;;4974418;28;20272;-63
2022/11/11 08:09:08;;;;;;;;;;;20.00;46.60;;;;;;4970988;28;19940;-63
2022/11/11 08:14:20;;;;;;;;;;;19.90;46.60;;;;;;4966830;28;19926;-63
2022/11/11 08:16:47;;;;;;;;;;;20.00;46.60;;;;;;4981642;28;19984;-62
2022/11/11 08:19:13;;;;;;;;;;;19.90;46.60;;;;;;4985953;28;19976;-62
2022/11/11 08:21:40;;;;;;;;;;;19.90;46.60;;;;;;4977993;28;19933;-63
2022/11/11 08:24:08;;;;;;;;;;;20.00;46.70;;;;;;4993726;28;19933;-62
2022/11/11 08:26:36;;;;;;;;;;;20.00;46.70;;;;;;4982994;28;19984;-63
2022/11/11 08:29:02;;;;;;;;;;;20.00;46.70;;;;;;4977510;28;19925;-63
2022/11/11 08:31:30;;;;;;;;;;;20.00;46.70;;;;;;4977194;28;19933;-65
2022/11/11 08:33:56;;;;;;;;;;;20.00;46.70;;;;;;4999943;28;20071;-63
2022/11/11 08:36:24;;;;;;;;;;;19.90;46.60;;;;;;4976785;28;19930;-62
2022/11/11 08:38:50;;;;;;;;;;;19.90;46.60;;;;;;4975399;28;20016;-63
2022/11/11 08:41:18;;;;;;;;;;;20.00;46.70;;;;;;4977733;28;19925;-63
2022/11/11 08:43:46;;;;;;;;;;;19.90;46.60;;;;;;4975629;28;19988;-63
2022/11/11 08:46:13;;;;;;;;;;;20.00;46.70;;;;;;4994687;28;19925;-63
2022/11/11 08:48:40;;;;;;;;;;;19.90;46.60;;;;;;4978382;28;19932;-64
2022/11/11 08:51:06;;;;;;;;;;;19.90;46.60;;;;;;4978677;28;19926;-62
2022/11/11 08:53:33;;;;;;;;;;;20.00;46.70;;;;;;4975226;28;20384;-62
2022/11/11 08:56:01;;;;;;;;;;;20.00;46.70;;;;;;4999385;28;19933;-63
2022/11/11 08:58:28;;;;;;;;;;;19.90;46.60;;;;;;4988306;28;20430;-62
2022/11/11 09:00:56;;;;;;;;;;;19.90;46.60;;;;;;4994830;28;19934;-63
2022/11/11 09:03:23;;;;;;;;;;;20.00;46.70;;;;;;4975541;28;20020;-63
2022/11/11 09:05:50;;;;;;;;;;;20.00;46.70;;;;;;4974594;28;19933;-63
2022/11/11 09:08:16;;;;;;;;;;;20.00;46.70;;;;;;4975464;28;19926;-65
2022/11/11 09:10:43;;;;;;;;;;;20.00;46.70;;;;;;4977433;28;19988;-66
2022/11/11 09:13:10;;;;;;;;;;;20.00;46.70;;;;;;4964546;28;19933;-65
2022/11/11 09:15:37;;;;;;;;;;;20.00;46.70;;;;;;4988417;28;19922;-65
2022/11/11 09:18:05;;;;;;;;;;;19.90;46.70;;;;;;4975374;28;19932;-66
2022/11/11 09:20:32;;;;;;;;;;;20.00;46.80;;;;;;4984987;28;19925;-66
2022/11/11 09:22:58;;;;;;;;;;;19.90;46.70;;;;;;5000329;28;19972;-65
2022/11/11 09:25:25;;;;;;;;;;;19.90;46.70;;;;;;4975716;28;19955;-65
2022/11/11 09:27:56;;;;;;;;;;;20.00;46.80;;;;;;4980308;28;19926;-65
2022/11/11 09:30:22;;;;;;;;;;;20.00;46.80;;;;;;5000570;28;19929;-65
2022/11/11 09:32:49;;;;;;;;;;;20.00;46.80;;;;;;4979104;28;19929;-66
2022/11/11 09:35:17;;;;;;;;;;;20.00;46.80;;;;;;4994129;28;19926;-65
2022/11/11 09:37:52;;;;;;;;;;;20.00;46.80;;;;;;4998443;28;19948;-66
2022/11/11 09:40:20;;;;;;;;;;;20.00;46.80;;;;;;4973742;28;19934;-64
2022/11/11 09:42:48;;;;;;;;;;;20.00;46.90;;;;;;4990254;28;19926;-64
2022/11/11 09:45:16;;;;;;;;;;;20.00;46.80;;;;;;4969644;28;20132;-64
2022/11/11 09:47:45;;;;;;;;;;;20.00;46.80;;;;;;4977795;28;19933;-64
2022/11/11 09:50:12;;;;;;;;;;;20.00;46.90;;;;;;4993305;28;19925;-64
2022/11/11 09:52:41;;;;;;;;;;;20.00;46.90;;;;;;4982577;28;19929;-65
2022/11/11 09:55:12;;;;;;;;;;;20.00;46.90;;;;;;4976948;28;19930;-66
2022/11/11 09:57:40;;;;;;;;;;;20.00;46.80;;;;;;4976243;28;19926;-64
2022/11/11 10:00:08;;;;;;;;;;;20.00;46.90;;;;;;4984162;28;19937;-66
2022/11/11 10:02:35;;;;;;;;;;;20.00;46.90;;;;;;4987382;28;19969;-65
2022/11/11 10:05:05;;;;;;;;;;;20.00;46.90;;;;;;4976583;28;19926;-65
2022/11/11 10:07:34;;;;;;;;;;;20.00;46.90;;;;;;4985818;28;19925;-65
2022/11/11 10:10:06;;;;;;;;;;;20.00;46.90;;;;;;4978489;28;19949;-66
2022/11/11 10:12:35;;;;;;;;;;;20.00;46.90;;;;;;4977096;28;19988;-66
2022/11/11 10:15:01;;;;;;;;;;;20.00;46.90;;;;;;4975173;28;19933;-64
2022/11/11 10:17:30;;;;;;;;;;;20.00;46.90;;;;;;4993462;28;20396;-65
2022/11/11 10:20:01;;;;;;;;;;;20.00;46.90;;;;;;4992247;28;19933;-65
2022/11/11 10:22:30;;;;;;;;;;;20.00;46.90;;;;;;4976452;28;19925;-65
2022/11/11 10:25:00;;;;;;;;;;;20.00;46.90;;;;;;4970272;28;19933;-65
2022/11/11 10:27:28;;;;;;;;;;;20.00;46.90;;;;;;4978327;28;19930;-65
2022/11/11 10:29:55;;;;;;;;;;;20.00;46.90;;;;;;4989965;28;19933;-64
2022/11/11 10:32:23;;;;;;;;;;;20.00;46.90;;;;;;4989709;28;19930;-63
2022/11/11 10:34:50;;;;;;;;;;;20.00;46.90;;;;;;4985008;28;19933;-64
2022/11/11 10:37:18;;;;;;;;;;;20.00;46.90;;;;;;4986382;28;19932;-63
2022/11/11 10:39:56;;;;;;;;;;;20.00;46.90;;;;;;4972388;28;19930;-63
2022/11/11 10:42:23;;;;;;;;;;;20.00;46.90;;;;;;4989146;28;19936;-63
2022/11/11 10:44:51;;;;;;;;;;;20.00;47.00;;;;;;4974450;28;19937;-64
2022/11/11 10:47:19;;;;;;;;;;;20.00;46.90;;;;;;4983728;28;19926;-63
2022/11/11 10:49:46;;;;;;;;;;;20.00;46.90;;;;;;4988580;28;19930;-63
2022/11/11 10:52:14;;;;;;;;;;;20.00;46.90;;;;;;4970012;28;19925;-63
2022/11/11 10:54:41;;;;;;;;;;;20.00;46.90;;;;;;4985448;28;19930;-64
2022/11/11 10:57:10;;;;;;;;;;;20.00;46.90;;;;;;4960198;28;19981;-63
2022/11/11 10:59:37;;;;;;;;;;;20.00;46.90;;;;;;4985852;28;19930;-62
2022/11/11 11:02:07;;;;;;;;;;;20.00;46.90;;;;;;4969016;28;19926;-63
2022/11/11 11:04:35;;;;;;;;;;;20.00;46.90;;;;;;4955907;28;20021;-63
2022/11/11 11:07:02;;;;;;;;;;;20.00;46.90;;;;;;4987090;28;19926;-64
2022/11/11 11:09:30;;;;;;;;;;;20.00;46.90;;;;;;4988687;28;19933;-64
2022/11/11 11:11:58;;;;;;;;;;;20.00;46.90;;;;;;4986357;28;19970;-63
2022/11/11 11:14:29;;;;;;;;;;;20.00;46.90;;;;;;4973546;28;20335;-64
2022/11/11 11:16:58;;;;;;;;;;;20.00;46.90;;;;;;4999588;28;19934;-63
2022/11/11 11:19:26;;;;;;;;;;;20.00;46.90;;;;;;4990998;28;19932;-64
2022/11/11 11:21:53;;;;;;;;;;;20.00;46.90;;;;;;4991127;28;20380;-62
2022/11/11 11:24:21;;;;;;;;;;;20.00;46.90;;;;;;4991463;28;20025;-63
2022/11/11 11:26:50;;;;;;;;;;;20.00;46.90;;;;;;4979795;28;19936;-63
2022/11/11 11:29:24;;;;;;;;;;;20.00;46.90;;;;;;4989116;28;19937;-63
2022/11/11 11:31:50;;;;;;;;;;;20.00;46.90;;;;;;4973902;28;19933;-63
2022/11/11 11:34:17;;;;;;;;;;;20.00;46.90;;;;;;4973158;28;19934;-63
2022/11/11 11:36:45;;;;;;;;;;;20.00;46.90;;;;;;4994482;28;20355;-63
2022/11/11 11:39:12;;;;;;;;;;;20.00;46.90;;;;;;4971919;28;20024;-63
2022/11/11 11:41:39;;;;;;;;;;;20.00;46.90;;;;;;4989757;28;20279;-63
2022/11/11 11:44:21;;;;;;;;;;;20.00;46.90;;;;;;4990295;28;19925;-63
2022/11/11 11:46:48;;;;;;;;;;;20.00;46.90;;;;;;4977364;28;20018;-63
2022/11/11 11:49:18;;;;;;;;;;;20.00;46.90;;;;;;4976962;28;19933;-63
2022/11/11 11:51:48;;;;;;;;;;;20.00;46.90;;;;;;4973225;28;19933;-63
2022/11/11 11:54:22;;;;;;;;;;;20.00;46.90;;;;;;4991101;28;19926;-63
2022/11/11 11:56:49;;;;;;;;;;;20.00;46.90;;;;;;4974224;28;19929;-63
2022/11/11 11:59:17;;;;;;;;;;;20.00;47.00;;;;;;4974134;28;19926;-63
2022/11/11 12:01:49;;;;;;;;;;;20.00;46.90;;;;;;4985496;28;19925;-63
2022/11/11 12:04:22;;;;;;;;;;;20.00;46.90;;;;;;4973945;28;19949;-63
2022/11/11 12:06:53;;;;;;;;;;;20.00;46.90;;;;;;4974066;28;19926;-63
2022/11/11 12:09:23;;;;;;;;;;;20.00;46.90;;;;;;4977177;28;19930;-63
2022/11/11 12:11:51;;;;;;;;;;;20.00;46.90;;;;;;4979368;28;20043;-63
2022/11/11 12:14:35;;;;;;;;;;;20.00;46.90;;;;;;4978256;28;19934;-63
2022/11/11 12:17:04;;;;;;;;;;;20.00;46.90;;;;;;4973611;28;20316;-63
2022/11/11 12:19:37;;;;;;;;;;;20.00;46.90;;;;;;4974135;28;19925;-63
2022/11/11 12:22:06;;;;;;;;;;;20.00;47.50;;;;;;4973452;28;20295;-63
2022/11/11 12:24:39;;;;;;;;;;;20.00;46.90;;;;;;4984831;28;20049;-63
2022/11/11 12:27:08;;;;;;;;;;;20.00;46.90;;;;;;4989606;28;19980;-63
2022/11/11 12:29:38;;;;;;;;;;;20.00;46.90;;;;;;4996011;28;20001;-63
2022/11/11 12:32:15;;;;;;;;;;;20.00;46.90;;;;;;4997328;28;19930;-64
2022/11/11 12:34:51;;;;;;;;;;;20.00;46.90;;;;;;4991767;28;19929;-63
2022/11/11 12:37:20;;;;;;;;;;;20.00;46.90;;;;;;4966767;28;20009;-63
2022/11/11 12:39:53;;;;;;;;;;;20.00;46.90;;;;;;4975223;28;20393;-63
2022/11/11 12:42:23;;;;;;;;;;;20.00;46.90;;;;;;4990544;28;19926;-63
2022/11/11 12:44:52;;;;;;;;;;;20.00;46.90;;;;;;4979388;28;19933;-63
2022/11/11 12:47:22;;;;;;;;;;;20.00;46.90;;;;;;4991122;28;19957;-67
2022/11/11 12:49:51;;;;;;;;;;;20.00;46.70;;;;;;4972968;28;19933;-68
2022/11/11 12:52:23;;;;;;;;;;;20.00;46.50;;;;;;4989758;28;19934;-67
2022/11/11 12:54:55;;;;;;;;;;;19.90;46.40;;;;;;4991964;28;20535;-68
2022/11/11 12:57:24;;;;;;;;;;;19.90;46.40;;;;;;4989730;28;19925;-68
2022/11/11 12:59:56;;;;;;;;;;;19.90;46.40;;;;;;5003573;28;19961;-67
2022/11/11 13:02:33;;;;;;;;;;;19.90;46.30;;;;;;4999961;28;20011;-68
2022/11/11 13:05:01;;;;;;;;;;;19.90;46.30;;;;;;4982250;28;19937;-68
2022/11/11 13:07:49;;;;;;;;;;;19.80;46.20;;;;;;4977509;28;19926;-68
2022/11/11 13:10:34;;;;;;;;;;;19.80;46.20;;;;;;4971937;28;19934;-68
2022/11/11 13:13:04;;;;;;;;;;;19.80;46.30;;;;;;4990457;28;19926;-68
2022/11/11 13:15:31;;;;;;;;;;;19.80;46.30;;;;;;4993816;28;20536;-68
2022/11/11 13:17:59;;;;;;;;;;;19.80;46.40;;;;;;4968643;28;19933;-68
2022/11/11 13:20:29;;;;;;;;;;;19.80;46.40;;;;;;4991187;28;19926;-68
2022/11/11 13:22:56;;;;;;;;;;;19.80;46.50;;;;;;4973527;28;19956;-69
2022/11/11 13:25:23;;;;;;;;;;;19.80;46.40;;;;;;4982434;28;19933;-68
2022/11/11 13:27:50;;;;;;;;;;;19.80;46.50;;;;;;4976098;28;19934;-68
2022/11/11 13:30:33;;;;;;;;;;;19.90;46.50;;;;;;4975650;28;19926;-67
2022/11/11 13:33:01;;;;;;;;;;;19.80;46.50;;;;;;4977271;28;20028;-68
2022/11/11 13:35:29;;;;;;;;;;;19.90;46.60;;;;;;4973041;28;19926;-68
2022/11/11 13:37:55;;;;;;;;;;;19.90;46.60;;;;;;4993137;28;19932;-67
2022/11/11 13:40:26;;;;;;;;;;;19.90;46.60;;;;;;4970531;28;19953;-69
2022/11/11 13:42:52;;;;;;;;;;;19.90;46.60;;;;;;4981293;28;19925;-68
2022/11/11 13:45:23;;;;;;;;;;;19.90;46.60;;;;;;4976381;28;19941;-67
2022/11/11 13:47:51;;;;;;;;;;;19.90;46.70;;;;;;4968801;28;20380;-69
2022/11/11 13:50:21;;;;;;;;;;;19.90;46.70;;;;;;4977754;28;20373;-69
2022/11/11 13:52:53;;;;;;;;;;;19.90;46.70;;;;;;4973133;28;20621;-66
2022/11/11 13:55:23;;;;;;;;;;;19.90;46.70;;;;;;4979678;28;19926;-67
2022/11/11 13:57:50;;;;;;;;;;;20.00;46.80;;;;;;4993674;28;19948;-67
2022/11/11 14:00:27;;;;;;;;;;;20.00;46.80;;;;;;5000626;28;19949;-66
2022/11/11 14:03:13;;;;;;;;;;;20.00;46.80;;;;;;4980783;28;19933;-66
2022/11/11 14:05:41;;;;;;;;;;;20.00;46.80;;;;;;4990648;28;19933;-66
2022/11/11 14:08:08;;;;;;;;;;;20.00;46.90;;;;;;4983385;28;19926;-66
2022/11/11 14:10:54;;;;;;;;;;;20.00;46.90;;;;;;4973181;28;20076;-67
2022/11/11 14:13:37;;;;;;;;;;;20.00;46.90;;;;;;4984693;28;19930;-69
2022/11/11 14:16:04;;;;;;;;;;;20.00;47.00;;;;;;4993543;28;19929;-67
2022/11/11 14:18:40;;;;;;;;;;;20.00;47.00;;;;;;4975517;28;19936;-66
2022/11/11 14:21:10;;;;;;;;;;;20.00;47.00;;;;;;4993747;28;20002;-67
2022/11/11 14:23:37;;;;;;;;;;;20.00;47.00;;;;;;4975671;28;19980;-67
2022/11/11 14:26:21;;;;;;;;;;;20.10;47.00;;;;;;4977127;28;19973;-67
2022/11/11 14:28:50;;;;;;;;;;;20.10;47.00;;;;;;4974520;28;19926;-67
2022/11/11 14:31:32;;;;;;;;;;;20.00;47.00;;;;;;4969100;28;19929;-68
2022/11/11 14:34:00;;;;;;;;;;;20.10;47.00;;;;;;4971887;28;20431;-67
2022/11/11 14:36:32;;;;;;;;;;;20.00;47.00;;;;;;4975451;28;19949;-68
2022/11/11 14:39:03;;;;;;;;;;;20.10;47.00;;;;;;4973402;28;19933;-67
2022/11/11 14:41:43;;;;;;;;;;;20.10;47.10;;;;;;4964835;28;19930;-66
2022/11/11 14:44:28;;;;;;;;;;;20.10;47.10;;;;;;4968562;28;19957;-67
2022/11/11 14:47:22;;;;;;;;;;;20.10;47.10;;;;;;4973830;28;20337;-67
2022/11/11 14:49:51;;;;;;;;;;;20.10;47.10;;;;;;4936507;28;19985;-67
2022/11/11 14:52:21;;;;;;;;;;;20.10;47.10;;;;;;4995386;28;19925;-67
2022/11/11 14:54:59;;;;;;;;;;;20.10;47.10;;;;;;4971505;28;19930;-67
2022/11/11 14:57:27;;;;;;;;;;;20.10;47.10;;;;;;4992069;28;19933;-67
2022/11/11 14:59:54;;;;;;;;;;;20.10;47.10;;;;;;4995962;28;19932;-67
2022/11/11 15:02:23;;;;;;;;;;;20.10;47.10;;;;;;4978790;28;19941;-67
2022/11/11 15:04:49;;;;;;;;;;;20.10;47.10;;;;;;4994997;28;19926;-67
2022/11/11 15:07:25;;;;;;;;;;;20.10;47.10;;;;;;4998950;28;19933;-67
2022/11/11 15:09:58;;;;;;;;;;;20.10;47.10;;;;;;4985670;28;19933;-67
2022/11/11 15:12:28;;;;;;;;;;;20.20;47.20;;;;;;4993751;28;19926;-67
2022/11/11 15:14:57;;;;;;;;;;;20.10;47.10;;;;;;4978533;28;19926;-67
2022/11/11 15:17:25;;;;;;;;;;;20.10;47.10;;;;;;4975146;28;19930;-67
2022/11/11 15:19:55;;;;;;;;;;;20.10;47.20;;;;;;4987737;28;20449;-67
2022/11/11 15:22:44;;;;;;;;;;;20.10;47.10;;;;;;4974587;28;20571;-68
2022/11/11 15:25:15;;;;;;;;;;;20.20;47.20;;;;;;4973220;28;19926;-67
2022/11/11 15:27:43;;;;;;;;;;;20.10;47.20;;;;;;4968983;28;19926;-67
2022/11/11 15:30:11;;;;;;;;;;;20.20;47.30;;;;;;4973320;28;19980;-67
2022/11/11 15:32:42;;;;;;;;;;;20.20;47.30;;;;;;4974864;28;19926;-67
2022/11/11 15:35:14;;;;;;;;;;;20.20;47.30;;;;;;4973414;28;19941;-67
2022/11/11 15:37:42;;;;;;;;;;;20.20;47.30;;;;;;4988379;28;19930;-67
2022/11/11 15:40:16;;;;;;;;;;;20.20;47.30;;;;;;4974861;28;19930;-67
2022/11/11 15:42:44;;;;;;;;;;;20.20;47.30;;;;;;4973729;28;19980;-67
2022/11/11 15:45:14;;;;;;;;;;;20.20;47.30;;;;;;4989573;28;19930;-68